Time;durP1;ratioP1;P1;durP2;ratioP2;P2;SDS_P1;SDS_P2;PMS_P1;PMS_P2;Temp;Humidity;BMP_temperature;BMP_pressure;BME280_temperature;BME280_humidity;BME280_pressure;Samples;Min_cycle;Max_cycle;Signal;HPM_P1;HPM_P2
2023/05/06 00:01:05;;;;;;;15.90;10.90;;;12.60;59.90;;;;;;5112810;28;20112;-73
2023/05/06 00:03:31;;;;;;;13.80;10.32;;;12.60;60.10;;;;;;5117427;28;20028;-73
2023/05/06 00:05:57;;;;;;;18.08;12.80;;;12.60;60.20;;;;;;5117792;28;20534;-73
2023/05/06 00:08:22;;;;;;;14.15;10.38;;;12.60;60.00;;;;;;5117656;28;20023;-73
2023/05/06 00:10:48;;;;;;;15.73;11.70;;;12.60;60.00;;;;;;5116826;28;20027;-73
2023/05/06 00:13:13;;;;;;;18.42;12.73;;;12.60;60.10;;;;;;5116417;28;20039;-73
2023/05/06 00:15:39;;;;;;;16.15;12.80;;;12.60;60.00;;;;;;5117554;28;21728;-73
2023/05/06 00:18:05;;;;;;;17.38;10.60;;;12.60;60.10;;;;;;5116958;28;20028;-73
2023/05/06 00:20:31;;;;;;;16.35;12.73;;;12.50;60.10;;;;;;5112013;28;20408;-73
2023/05/06 00:22:57;;;;;;;18.83;14.15;;;12.50;60.30;;;;;;5117134;28;20061;-73
2023/05/06 00:25:23;;;;;;;14.07;11.85;;;12.50;60.00;;;;;;5116699;28;20040;-74
2023/05/06 00:27:49;;;;;;;16.13;10.77;;;12.40;60.10;;;;;;5117913;28;20049;-73
2023/05/06 00:30:14;;;;;;;13.65;10.23;;;12.40;60.10;;;;;;5117377;28;20707;-73
2023/05/06 00:32:40;;;;;;;16.60;12.07;;;12.30;60.10;;;;;;5115038;28;20045;-73
2023/05/06 00:35:06;;;;;;;18.02;11.55;;;12.30;60.00;;;;;;5110977;28;20317;-73
2023/05/06 00:37:31;;;;;;;18.88;14.82;;;12.30;60.10;;;;;;5115347;28;20027;-74
2023/05/06 00:39:57;;;;;;;19.27;13.60;;;12.30;60.00;;;;;;5098131;28;20028;-73
2023/05/06 00:42:24;;;;;;;13.40;11.18;;;12.20;60.00;;;;;;5116401;28;20332;-73
2023/05/06 00:44:50;;;;;;;18.05;12.80;;;12.20;59.60;;;;;;5114766;28;20034;-73
2023/05/06 00:47:17;;;;;;;18.08;11.27;;;12.20;59.50;;;;;;5098856;28;20031;-73
2023/05/06 00:49:52;;;;;;;24.00;16.48;;;12.30;59.40;;;;;;5114908;28;20119;-74
2023/05/06 00:52:18;;;;;;;26.50;16.80;;;12.30;59.70;;;;;;5096200;28;20031;-74
2023/05/06 00:54:44;;;;;;;18.27;13.73;;;12.20;59.40;;;;;;5112428;28;20036;-74
2023/05/06 00:57:10;;;;;;;22.92;14.60;;;12.20;59.30;;;;;;5092944;28;20047;-74
2023/05/06 00:59:36;;;;;;;17.83;12.30;;;12.30;59.10;;;;;;5113812;28;20042;-74
2023/05/06 01:02:04;;;;;;;12.43;9.40;;;12.30;59.10;;;;;;5117044;28;20027;-73
2023/05/06 01:04:30;;;;;;;23.02;14.55;;;12.30;58.90;;;;;;5116446;28;20031;-73
2023/05/06 01:07:24;;;;;;;14.00;11.43;;;12.30;59.00;;;;;;5097785;28;20031;-73
2023/05/06 01:10:05;;;;;;;12.73;9.77;;;12.30;59.10;;;;;;5112799;28;20531;-74
2023/05/06 01:12:33;;;;;;;11.70;8.57;;;12.30;59.10;;;;;;5114343;28;20045;-73
2023/05/06 01:15:10;;;;;;;12.50;9.80;;;12.40;59.10;;;;;;5115430;28;20076;-73
2023/05/06 01:17:41;;;;;;;23.75;17.48;;;12.30;59.20;;;;;;5114387;28;20102;-73
2023/05/06 01:20:20;;;;;;;14.52;9.48;;;12.30;59.30;;;;;;5115803;28;20031;-74
2023/05/06 01:22:54;;;;;;;13.20;10.27;;;12.30;59.10;;;;;;5096959;28;20038;-73
2023/05/06 01:25:23;;;;;;;;;;;12.30;59.20;;;;;;5096100;28;20030;-74
2023/05/06 01:27:54;;;;;;;12.68;9.27;;;12.30;59.20;;;;;;5096677;28;19922;-74
2023/05/06 01:30:30;;;;;;;12.98;9.82;;;12.30;59.00;;;;;;5113517;28;20024;-73
2023/05/06 01:33:22;;;;;;;11.23;9.13;;;12.40;59.00;;;;;;5114035;28;20055;-74
2023/05/06 01:36:11;;;;;;;12.00;8.77;;;12.30;59.30;;;;;;5091150;28;20111;-73
2023/05/06 01:38:53;;;;;;;14.95;10.40;;;12.20;59.30;;;;;;5097954;28;20051;-73
2023/05/06 01:41:21;;;;;;;13.60;10.35;;;12.20;59.30;;;;;;5113523;28;20027;-73
2023/05/06 01:43:51;;;;;;;19.33;14.73;;;12.20;59.20;;;;;;5114251;28;20030;-74
2023/05/06 01:46:20;;;;;;;15.95;12.77;;;12.20;59.20;;;;;;5096670;28;20085;-73
2023/05/06 01:48:52;;;;;;;14.90;10.98;;;12.20;59.20;;;;;;5112419;28;20473;-73
2023/05/06 01:51:20;;;;;;;11.45;10.05;;;12.20;59.20;;;;;;5096819;28;20054;-73
2023/05/06 01:53:46;;;;;;;14.30;9.95;;;12.20;59.20;;;;;;5110731;28;20034;-73
2023/05/06 01:56:22;;;;;;;13.30;11.65;;;12.20;59.30;;;;;;5093110;28;20032;-73
2023/05/06 01:58:48;;;;;;;15.35;11.32;;;12.30;59.20;;;;;;5111831;28;20240;-73
2023/05/06 02:01:14;;;;;;;11.35;8.98;;;12.20;59.30;;;;;;5114560;28;20384;-73
2023/05/06 02:03:39;;;;;;;11.98;9.43;;;12.20;59.00;;;;;;5109723;28;20031;-73
2023/05/06 02:06:05;;;;;;;14.88;11.80;;;12.30;59.10;;;;;;5113975;28;20114;-73
2023/05/06 02:08:30;;;;;;;15.32;10.48;;;12.20;59.40;;;;;;5109548;28;20315;-73
2023/05/06 02:10:56;;;;;;;13.85;11.60;;;12.20;59.30;;;;;;5112880;28;20106;-73
2023/05/06 02:13:21;;;;;;;13.98;11.95;;;12.20;59.40;;;;;;5083247;28;20034;-73
2023/05/06 02:15:52;;;;;;;16.98;11.63;;;12.10;59.50;;;;;;5110279;28;20030;-73
2023/05/06 02:18:18;;;;;;;13.40;10.23;;;12.10;59.60;;;;;;5114785;28;20065;-73
2023/05/06 02:20:46;;;;;;;14.68;11.27;;;12.00;59.80;;;;;;5113585;28;20412;-74
2023/05/06 02:23:12;;;;;;;16.58;12.07;;;11.90;59.70;;;;;;5109741;28;20023;-74
2023/05/06 02:25:38;;;;;;;14.18;10.02;;;11.90;59.50;;;;;;5114450;28;20032;-74
2023/05/06 02:28:03;;;;;;;16.30;12.95;;;11.90;59.40;;;;;;5113099;28;20134;-73
2023/05/06 02:30:30;;;;;;;14.23;11.20;;;11.90;59.40;;;;;;5096876;28;20034;-73
2023/05/06 02:32:56;;;;;;;14.70;12.10;;;11.90;59.20;;;;;;5116473;28;20119;-73
2023/05/06 02:35:27;;;;;;;20.38;13.50;;;11.90;59.30;;;;;;5115384;28;20352;-73
2023/05/06 02:37:53;;;;;;;15.50;12.05;;;11.80;59.40;;;;;;5114499;28;20054;-73
2023/05/06 02:40:18;;;;;;;21.58;15.48;;;11.80;59.50;;;;;;5114334;28;20051;-73
2023/05/06 02:42:44;;;;;;;16.98;12.35;;;11.70;59.80;;;;;;5085467;28;20328;-73
2023/05/06 02:45:10;;;;;;;16.27;10.32;;;11.60;60.20;;;;;;5110123;28;20411;-73
2023/05/06 02:47:36;;;;;;;16.40;10.23;;;11.40;60.30;;;;;;5111804;28;20085;-73
2023/05/06 02:50:01;;;;;;;12.50;9.05;;;11.30;60.20;;;;;;5110192;28;20034;-73
2023/05/06 02:52:27;;;;;;;14.00;8.35;;;11.10;60.90;;;;;;5111690;28;20031;-73
2023/05/06 02:54:52;;;;;;;14.55;8.82;;;11.00;60.60;;;;;;5112413;28;20038;-73
2023/05/06 02:57:18;;;;;;;12.30;7.82;;;10.90;60.30;;;;;;5107183;28;20035;-73
2023/05/06 02:59:43;;;;;;;12.75;6.68;;;10.90;60.60;;;;;;5112539;28;20085;-73
2023/05/06 03:02:09;;;;;;;9.93;5.18;;;10.80;60.30;;;;;;5111251;28;20024;-73
2023/05/06 03:04:35;;;;;;;10.70;5.32;;;10.80;60.20;;;;;;5113160;28;20031;-73
2023/05/06 03:07:00;;;;;;;11.02;4.65;;;10.70;60.20;;;;;;5112342;28;20027;-73
2023/05/06 03:09:26;;;;;;;7.50;4.20;;;10.70;60.00;;;;;;5107658;28;20328;-72
2023/05/06 03:11:51;;;;;;;10.38;6.18;;;10.70;59.90;;;;;;5112112;28;20023;-73
2023/05/06 03:14:17;;;;;;;12.38;6.00;;;10.70;60.00;;;;;;5112097;28;20042;-72
2023/05/06 03:16:42;;;;;;;8.55;4.50;;;10.70;60.00;;;;;;5112534;28;20020;-73
2023/05/06 03:19:08;;;;;;;9.35;4.40;;;10.70;60.20;;;;;;5110974;28;20098;-73
2023/05/06 03:21:34;;;;;;;10.88;5.22;;;10.70;60.20;;;;;;5111297;28;20020;-73
2023/05/06 03:23:59;;;;;;;12.25;7.40;;;10.70;59.80;;;;;;5111310;28;20043;-73
2023/05/06 03:26:25;;;;;;;8.88;5.75;;;10.70;59.70;;;;;;5112783;28;20617;-72
2023/05/06 03:28:51;;;;;;;8.77;5.40;;;10.70;59.90;;;;;;5112049;28;20715;-73
2023/05/06 03:31:16;;;;;;;12.90;5.90;;;10.70;60.20;;;;;;5112337;28;20046;-72
2023/05/06 03:33:42;;;;;;;11.40;5.13;;;10.60;60.20;;;;;;5111647;28;20168;-73
2023/05/06 03:36:07;;;;;;;13.60;6.28;;;10.50;60.20;;;;;;5107612;28;20032;-73
2023/05/06 03:38:33;;;;;;;9.05;5.28;;;10.50;60.10;;;;;;5110113;28;20040;-73
2023/05/06 03:40:58;;;;;;;10.70;5.50;;;10.50;60.00;;;;;;5093642;28;20020;-73
2023/05/06 03:43:24;;;;;;;10.95;6.05;;;10.50;59.90;;;;;;5112468;28;20036;-73
2023/05/06 03:45:50;;;;;;;7.68;4.38;;;10.60;59.80;;;;;;5109906;28;20043;-72
2023/05/06 03:48:15;;;;;;;9.70;5.28;;;10.60;59.70;;;;;;5112232;28;20102;-73
2023/05/06 03:50:41;;;;;;;9.23;5.13;;;10.60;59.80;;;;;;5112169;28;20085;-73
2023/05/06 03:53:07;;;;;;;8.30;5.10;;;10.60;59.90;;;;;;5112793;28;20333;-72
2023/05/06 03:55:32;;;;;;;9.40;5.50;;;10.50;60.10;;;;;;5110996;28;20032;-73
2023/05/06 03:57:58;;;;;;;10.57;6.82;;;10.40;60.30;;;;;;5116040;28;20416;-72
2023/05/06 04:00:24;;;;;;;9.02;5.40;;;10.40;59.90;;;;;;5113967;28;20035;-73
2023/05/06 04:02:50;;;;;;;11.25;7.05;;;10.40;59.70;;;;;;5096215;28;20427;-73
2023/05/06 04:05:15;;;;;;;10.75;6.47;;;10.40;59.80;;;;;;5112662;28;20057;-73
2023/05/06 04:07:41;;;;;;;9.18;4.43;;;10.40;59.70;;;;;;5113179;28;20019;-72
2023/05/06 04:10:07;;;;;;;8.45;5.80;;;10.50;59.50;;;;;;5116525;28;20039;-73
2023/05/06 04:12:33;;;;;;;10.27;6.90;;;10.60;59.40;;;;;;5116049;28;20055;-72
2023/05/06 04:15:01;;;;;;;9.35;5.70;;;10.70;59.40;;;;;;5118460;28;20070;-72
2023/05/06 04:17:27;;;;;;;9.65;6.05;;;10.70;59.50;;;;;;5116734;28;20016;-73
2023/05/06 04:19:52;;;;;;;7.28;5.05;;;10.70;59.60;;;;;;5114191;28;20335;-73
2023/05/06 04:22:19;;;;;;;10.45;5.45;;;10.70;59.60;;;;;;5116558;28;20468;-73
2023/05/06 04:24:45;;;;;;;8.18;4.93;;;10.60;59.90;;;;;;5096497;28;20172;-73
2023/05/06 04:27:10;;;;;;;10.55;4.90;;;10.60;59.80;;;;;;5117054;28;20035;-73
2023/05/06 04:29:36;;;;;;;10.73;5.05;;;10.60;59.80;;;;;;5116651;28;20031;-72
2023/05/06 04:32:03;;;;;;;11.43;6.80;;;10.60;59.70;;;;;;5117482;28;20023;-73
2023/05/06 04:34:29;;;;;;;9.95;5.93;;;10.60;59.70;;;;;;5115278;28;20043;-73
2023/05/06 04:36:56;;;;;;;11.00;5.90;;;10.70;59.70;;;;;;5117589;28;20055;-73
2023/05/06 04:39:21;;;;;;;8.35;4.55;;;10.70;59.70;;;;;;5114429;28;20362;-72
2023/05/06 04:41:48;;;;;;;6.97;5.55;;;10.70;59.60;;;;;;5117858;28;20039;-72
2023/05/06 04:44:13;;;;;;;8.75;5.95;;;10.70;59.50;;;;;;5112084;28;20020;-73
2023/05/06 04:46:39;;;;;;;8.50;5.10;;;10.80;59.70;;;;;;5117933;28;20027;-73
2023/05/06 04:49:05;;;;;;;9.70;6.60;;;10.80;59.50;;;;;;5096511;28;20085;-73
2023/05/06 04:51:30;;;;;;;9.95;5.70;;;10.80;59.50;;;;;;5115108;28;20077;-74
2023/05/06 04:53:56;;;;;;;10.35;6.93;;;10.80;59.60;;;;;;5108183;28;20035;-73
2023/05/06 04:56:21;;;;;;;10.75;6.90;;;10.90;59.50;;;;;;5112156;28;20047;-73
2023/05/06 04:58:47;;;;;;;17.48;11.50;;;11.00;59.10;;;;;;5113364;28;20036;-73
2023/05/06 05:01:12;;;;;;;13.98;10.07;;;11.20;59.10;;;;;;5114171;28;20024;-73
2023/05/06 05:03:38;;;;;;;10.07;7.20;;;11.30;59.00;;;;;;5113174;28;20048;-72
2023/05/06 05:06:04;;;;;;;12.52;10.07;;;11.50;59.00;;;;;;5113046;28;20308;-73
2023/05/06 05:08:29;;;;;;;24.67;17.17;;;11.60;59.30;;;;;;5109526;28;20031;-72
2023/05/06 05:10:55;;;;;;;19.92;15.45;;;11.60;59.50;;;;;;5115324;28;20077;-72
2023/05/06 05:13:20;;;;;;;11.30;8.73;;;11.50;59.60;;;;;;5098267;28;20035;-72
2023/05/06 05:15:46;;;;;;;9.90;6.63;;;11.60;59.20;;;;;;5110024;28;20027;-74
2023/05/06 05:18:15;;;;;;;9.50;7.00;;;11.70;59.20;;;;;;5114058;28;20032;-74
2023/05/06 05:20:40;;;;;;;8.73;6.53;;;11.80;60.10;;;;;;5113885;28;20027;-73
2023/05/06 05:23:06;;;;;;;8.60;4.80;;;11.80;60.00;;;;;;5089479;28;20072;-73
2023/05/06 05:25:31;;;;;;;6.38;4.82;;;11.80;60.10;;;;;;5107272;28;20412;-73
2023/05/06 05:27:58;;;;;;;9.68;5.10;;;11.80;60.20;;;;;;5109273;28;20135;-73
2023/05/06 05:30:24;;;;;;;7.78;4.68;;;11.90;60.10;;;;;;5112127;28;20051;-74
2023/05/06 05:32:49;;;;;;;8.15;5.53;;;12.10;59.80;;;;;;5111552;28;20073;-73
2023/05/06 05:35:15;;;;;;;6.35;4.90;;;12.30;60.00;;;;;;5113157;28;20035;-73
2023/05/06 05:37:40;;;;;;;10.00;5.38;;;12.40;60.70;;;;;;5113367;28;20023;-73
2023/05/06 05:40:07;;;;;;;7.32;5.22;;;12.50;60.90;;;;;;5114640;28;20042;-73
2023/05/06 05:42:32;;;;;;;9.02;5.88;;;12.60;61.20;;;;;;5116190;28;20051;-73
2023/05/06 05:44:58;;;;;;;7.82;5.22;;;12.70;62.10;;;;;;5114013;28;20031;-73
2023/05/06 05:47:24;;;;;;;7.68;5.68;;;12.80;63.00;;;;;;5114526;28;20023;-73
2023/05/06 05:49:50;;;;;;;8.25;5.88;;;12.80;65.50;;;;;;5112974;28;20031;-73
2023/05/06 05:52:15;;;;;;;11.35;7.25;;;12.80;67.20;;;;;;5114175;28;20104;-73
2023/05/06 05:54:41;;;;;;;8.50;7.13;;;12.70;70.40;;;;;;5113685;28;20074;-73
2023/05/06 05:57:06;;;;;;;10.13;7.68;;;12.70;72.20;;;;;;5114471;28;20027;-72
2023/05/06 05:59:32;;;;;;;10.75;8.77;;;12.60;74.40;;;;;;5115381;28;20027;-73
2023/05/06 06:01:58;;;;;;;10.05;6.68;;;12.70;75.10;;;;;;5114917;28;20023;-72
2023/05/06 06:04:24;;;;;;;8.60;6.65;;;13.00;74.10;;;;;;5114597;28;20051;-72
2023/05/06 06:06:50;;;;;;;8.75;7.25;;;13.30;78.70;;;;;;5111466;28;20399;-72
2023/05/06 06:09:16;;;;;;;10.15;7.88;;;13.30;83.20;;;;;;5112918;28;20027;-72
2023/05/06 06:11:41;;;;;;;8.73;6.00;;;13.30;85.60;;;;;;5114000;28;20033;-72
2023/05/06 06:14:07;;;;;;;7.90;5.85;;;13.50;86.00;;;;;;5114233;28;20028;-72
2023/05/06 06:16:33;;;;;;;7.07;5.05;;;13.80;88.90;;;;;;5114822;28;20027;-72
2023/05/06 06:18:58;;;;;;;9.45;5.13;;;14.20;91.10;;;;;;5112719;28;20742;-74
2023/05/06 06:21:24;;;;;;;6.90;4.95;;;14.60;94.00;;;;;;5106025;28;20034;-73
2023/05/06 06:23:50;;;;;;;7.43;5.50;;;15.20;96.40;;;;;;5103164;27;20023;-73
2023/05/06 06:26:15;;;;;;;6.82;5.07;;;15.40;97.00;;;;;;5109393;28;22104;-73
2023/05/06 06:28:43;;;;;;;6.68;4.68;;;15.40;97.80;;;;;;5106007;28;20032;-73
2023/05/06 06:31:09;;;;;;;8.10;5.38;;;15.20;98.00;;;;;;5107087;28;20301;-73
2023/05/06 06:33:34;;;;;;;7.15;4.25;;;15.20;98.00;;;;;;5093789;28;20088;-73
2023/05/06 06:36:00;;;;;;;7.13;5.05;;;15.20;98.00;;;;;;5112432;28;20430;-74
2023/05/06 06:38:26;;;;;;;8.50;5.05;;;15.30;98.00;;;;;;5113479;28;20045;-73
2023/05/06 06:40:51;;;;;;;7.13;4.68;;;15.10;97.80;;;;;;5113298;28;20031;-73
2023/05/06 06:43:18;;;;;;;8.82;5.50;;;15.00;98.00;;;;;;5109140;28;20444;-73
2023/05/06 06:45:47;;;;;;;10.05;5.30;;;14.90;97.50;;;;;;5108902;28;20055;-73
2023/05/06 06:48:12;;;;;;;7.80;4.75;;;14.70;96.50;;;;;;5104999;28;20063;-73
2023/05/06 06:50:38;;;;;;;7.90;4.82;;;14.50;96.80;;;;;;5111450;28;20480;-73
2023/05/06 06:53:04;;;;;;;6.57;4.65;;;14.50;95.50;;;;;;5109527;28;20354;-73
2023/05/06 06:55:29;;;;;;;6.57;4.13;;;14.50;96.10;;;;;;5109086;28;20027;-73
2023/05/06 06:57:55;;;;;;;6.60;4.10;;;14.40;97.50;;;;;;5107175;28;20046;-73
2023/05/06 07:00:21;;;;;;;7.75;3.83;;;14.50;96.70;;;;;;5113051;28;20401;-73
2023/05/06 07:02:47;;;;;;;7.88;4.05;;;14.60;97.40;;;;;;5111497;28;20023;-73
2023/05/06 07:05:13;;;;;;;8.20;3.10;;;14.80;98.00;;;;;;5094891;28;20032;-73
2023/05/06 07:07:38;;;;;;;9.15;3.50;;;15.10;98.00;;;;;;5111058;28;20096;-73
2023/05/06 07:10:05;;;;;;;5.60;4.18;;;15.60;98.00;;;;;;5106632;28;20043;-73
2023/05/06 07:12:30;;;;;;;8.05;4.82;;;16.20;98.00;;;;;;5114019;28;20035;-73
2023/05/06 07:14:56;;;;;;;10.15;5.80;;;16.00;98.00;;;;;;5101985;28;20336;-73
2023/05/06 07:17:22;;;;;;;12.27;6.50;;;15.80;97.10;;;;;;5105031;28;20365;-73
2023/05/06 07:19:47;;;;;;;11.25;7.47;;;15.60;97.20;;;;;;5112675;28;20039;-73
2023/05/06 07:22:16;;;;;;;8.88;6.38;;;15.40;96.20;;;;;;5118019;28;20031;-73
2023/05/06 07:24:41;;;;;;;10.65;6.55;;;15.40;95.80;;;;;;5123317;28;20023;-74
2023/05/06 07:27:07;;;;;;;9.55;6.45;;;15.40;96.70;;;;;;5110977;28;20150;-73
2023/05/06 07:29:35;;;;;;;10.57;6.63;;;15.20;95.20;;;;;;5096438;28;20023;-72
2023/05/06 07:32:01;;;;;;;8.85;6.68;;;15.20;96.80;;;;;;5097604;28;20055;-73
2023/05/06 07:34:26;;;;;;;9.93;6.38;;;15.00;94.90;;;;;;5111952;27;20051;-73
2023/05/06 07:36:52;;;;;;;8.73;5.10;;;14.90;95.00;;;;;;5114560;27;20089;-73
2023/05/06 07:39:17;;;;;;;7.60;4.30;;;15.20;95.50;;;;;;5117302;27;20026;-73
2023/05/06 07:41:43;;;;;;;6.55;4.00;;;16.20;98.00;;;;;;5115636;28;20500;-73
2023/05/06 07:44:09;;;;;;;5.65;3.40;;;16.90;98.00;;;;;;5118574;28;20436;-73
2023/05/06 07:46:34;;;;;;;6.63;3.47;;;16.70;97.40;;;;;;5113317;27;20111;-73
2023/05/06 07:49:00;;;;;;;6.28;3.28;;;16.80;98.00;;;;;;5117217;27;20081;-72
2023/05/06 07:51:25;;;;;;;7.65;4.05;;;16.80;97.40;;;;;;5116541;27;20032;-72
2023/05/06 07:53:51;;;;;;;7.22;3.97;;;16.60;97.40;;;;;;5108561;28;20458;-72
2023/05/06 07:56:17;;;;;;;6.43;3.92;;;16.50;97.80;;;;;;5114001;28;20050;-72
2023/05/06 07:58:43;;;;;;;5.65;3.20;;;16.60;97.80;;;;;;5096213;28;20019;-72
2023/05/06 08:01:09;;;;;;;4.55;2.53;;;17.10;97.30;;;;;;5089088;28;20097;-72
2023/05/06 08:03:34;;;;;;;6.90;3.20;;;18.20;94.90;;;;;;5097075;28;20023;-72
2023/05/06 08:06:00;;;;;;;6.68;2.80;;;19.40;91.50;;;;;;5114775;28;20049;-73
2023/05/06 08:08:26;;;;;;;5.47;3.00;;;20.00;89.50;;;;;;5108474;28;20020;-73
2023/05/06 08:10:53;;;;;;;6.05;2.90;;;20.40;89.80;;;;;;5113440;28;20038;-73
2023/05/06 08:13:19;;;;;;;5.65;2.70;;;20.60;87.70;;;;;;5106522;28;20059;-74
2023/05/06 08:15:45;;;;;;;4.15;2.03;;;20.70;86.20;;;;;;5111311;28;20055;-73
2023/05/06 08:18:10;;;;;;;4.43;1.92;;;21.20;84.90;;;;;;5115360;28;20020;-73
2023/05/06 08:20:36;;;;;;;3.40;1.70;;;21.90;81.70;;;;;;5106054;28;20032;-73
2023/05/06 08:23:01;;;;;;;5.65;2.08;;;22.70;79.90;;;;;;5108366;28;20020;-73
2023/05/06 08:25:27;;;;;;;5.10;1.80;;;22.80;78.00;;;;;;5099687;28;20185;-73
2023/05/06 08:27:52;;;;;;;4.53;1.60;;;23.10;77.80;;;;;;5093893;28;20054;-73
2023/05/06 08:30:18;;;;;;;5.28;2.05;;;23.20;76.70;;;;;;5098362;28;20055;-73
2023/05/06 08:32:43;;;;;;;4.50;2.28;;;23.70;76.70;;;;;;5116105;28;20024;-73
2023/05/06 08:35:09;;;;;;;5.90;2.60;;;23.80;76.70;;;;;;5117676;28;20053;-73
2023/05/06 08:37:35;;;;;;;5.47;1.95;;;22.50;79.50;;;;;;5116375;28;20183;-73
2023/05/06 08:40:00;;;;;;;5.45;1.60;;;22.50;79.50;;;;;;5116623;28;20023;-73
2023/05/06 08:42:29;;;;;;;4.32;1.70;;;22.70;78.80;;;;;;5117932;28;20040;-72
2023/05/06 08:44:55;;;;;;;3.05;1.40;;;23.00;78.00;;;;;;5116076;28;20050;-73
2023/05/06 08:47:21;;;;;;;4.15;1.90;;;23.40;77.80;;;;;;5118548;28;20024;-73
2023/05/06 08:49:49;;;;;;;5.20;1.88;;;22.90;76.90;;;;;;5117885;28;20098;-72
2023/05/06 08:52:15;;;;;;;4.43;2.20;;;22.60;78.60;;;;;;5117555;28;20126;-73
2023/05/06 08:54:45;;;;;;;4.20;2.00;;;21.70;80.20;;;;;;5114527;28;20383;-73
2023/05/06 08:57:11;;;;;;;5.82;1.98;;;20.20;82.40;;;;;;5096639;28;20119;-73
2023/05/06 08:59:37;;;;;;;4.68;2.22;;;20.00;85.00;;;;;;5115337;28;20020;-73
2023/05/06 09:02:03;;;;;;;5.90;2.28;;;20.30;86.30;;;;;;5117638;28;20042;-73
2023/05/06 09:04:29;;;;;;;6.57;2.15;;;20.40;86.30;;;;;;5117342;28;20035;-73
2023/05/06 09:06:57;;;;;;;5.70;1.60;;;20.40;84.00;;;;;;5117551;28;20095;-73
2023/05/06 09:09:23;;;;;;;4.93;1.70;;;21.40;84.30;;;;;;5115427;28;20028;-73
2023/05/06 09:11:54;;;;;;;5.00;1.58;;;22.20;77.30;;;;;;5118120;28;20072;-74
2023/05/06 09:14:20;;;;;;;3.35;1.40;;;22.30;77.10;;;;;;5116911;28;20050;-73
2023/05/06 09:16:48;;;;;;;3.55;1.60;;;22.60;77.00;;;;;;5100204;28;20031;-73
2023/05/06 09:19:15;;;;;;;4.63;1.63;;;22.90;77.70;;;;;;5118097;28;20024;-73
2023/05/06 09:21:46;;;;;;;3.05;1.38;;;23.60;74.70;;;;;;5118301;28;20024;-73
2023/05/06 09:24:13;;;;;;;4.15;1.38;;;23.70;71.50;;;;;;5116734;28;20023;-73
2023/05/06 09:26:40;;;;;;;5.20;1.38;;;24.10;71.30;;;;;;5115006;28;20031;-73
2023/05/06 09:29:06;;;;;;;3.17;1.55;;;24.60;72.70;;;;;;5117934;28;20032;-73
2023/05/06 09:31:32;;;;;;;4.70;1.80;;;24.40;72.50;;;;;;5098594;28;20319;-73
2023/05/06 09:33:59;;;;;;;3.20;1.50;;;24.20;74.00;;;;;;5099972;28;20030;-72
2023/05/06 09:36:27;;;;;;;3.42;1.40;;;23.90;73.10;;;;;;5116648;28;20031;-72
2023/05/06 09:38:56;;;;;;;3.65;1.30;;;23.80;71.80;;;;;;5096141;28;20020;-73
2023/05/06 09:41:24;;;;;;;3.88;1.17;;;23.70;71.10;;;;;;5115320;28;20027;-73
2023/05/06 09:43:51;;;;;;;2.88;1.13;;;23.10;72.20;;;;;;5116412;28;20098;-73
2023/05/06 09:46:17;;;;;;;4.68;1.50;;;23.00;74.30;;;;;;5115298;28;20110;-73
2023/05/06 09:48:45;;;;;;;3.95;1.23;;;23.00;73.20;;;;;;5115398;28;20023;-72
2023/05/06 09:51:11;;;;;;;3.17;1.10;;;22.80;73.70;;;;;;5114908;28;20294;-73
2023/05/06 09:53:37;;;;;;;3.25;1.30;;;23.70;70.50;;;;;;5116217;28;20149;-73
2023/05/06 09:56:05;;;;;;;3.00;1.40;;;23.60;72.10;;;;;;5116513;28;20365;-73
2023/05/06 09:58:33;;;;;;;3.42;1.10;;;22.60;72.60;;;;;;5089953;28;20435;-73
2023/05/06 10:01:00;;;;;;;3.80;1.52;;;21.30;73.90;;;;;;5112343;28;20028;-74
2023/05/06 10:03:26;;;;;;;3.35;1.50;;;20.80;77.00;;;;;;5117266;28;20353;-72
2023/05/06 10:05:53;;;;;;;3.97;1.20;;;20.80;78.60;;;;;;5116387;28;20073;-73
2023/05/06 10:08:21;;;;;;;3.08;1.00;;;22.00;81.90;;;;;;5115993;28;20432;-72
2023/05/06 10:10:48;;;;;;;4.18;1.23;;;24.10;72.90;;;;;;5114522;28;20035;-72
2023/05/06 10:13:15;;;;;;;3.88;1.50;;;25.10;70.80;;;;;;5114153;28;20035;-72
2023/05/06 10:15:42;;;;;;;3.85;1.45;;;24.70;69.90;;;;;;5117002;28;20031;-73
2023/05/06 10:18:09;;;;;;;4.32;1.38;;;24.20;70.40;;;;;;5116173;28;20020;-72
2023/05/06 10:20:35;;;;;;;4.57;1.70;;;23.40;73.00;;;;;;5116976;28;20312;-72
2023/05/06 10:23:25;;;;;;;4.13;1.30;;;23.00;72.90;;;;;;5114562;28;20141;-72
2023/05/06 10:26:05;;;;;;;4.60;1.33;;;23.40;72.60;;;;;;5117005;28;20034;-72
2023/05/06 10:28:32;;;;;;;5.05;2.10;;;23.20;72.60;;;;;;5114489;28;20024;-72
2023/05/06 10:30:58;;;;;;;5.43;1.40;;;22.90;73.70;;;;;;5115856;28;20030;-72
2023/05/06 10:33:25;;;;;;;5.30;1.30;;;23.20;73.70;;;;;;5116952;28;20084;-72
2023/05/06 10:36:19;;;;;;;4.22;1.42;;;23.30;72.20;;;;;;5115775;28;20028;-71
2023/05/06 10:38:53;;;;;;;5.38;1.67;;;23.30;73.50;;;;;;5096520;28;20362;-72
2023/05/06 10:41:21;;;;;;;2.50;1.10;;;24.10;69.90;;;;;;5114713;28;20031;-72
2023/05/06 10:43:48;;;;;;;3.95;1.50;;;24.80;70.00;;;;;;5115753;28;20020;-72
2023/05/06 10:46:17;;;;;;;4.07;1.35;;;25.10;67.20;;;;;;5115386;28;20055;-74
2023/05/06 10:49:09;;;;;;;3.55;1.42;;;25.30;70.10;;;;;;5116639;28;20027;-72
2023/05/06 10:51:38;;;;;;;4.15;1.27;;;24.50;67.70;;;;;;5113486;28;20031;-71
2023/05/06 10:54:16;;;;;;;3.63;1.13;;;24.60;71.40;;;;;;5113484;28;20027;-72
2023/05/06 10:56:48;;;;;;;6.13;1.50;;;24.40;69.10;;;;;;5114917;28;20510;-71
2023/05/06 10:59:15;;;;;;;3.40;1.45;;;24.20;70.20;;;;;;5114525;28;20281;-72
2023/05/06 11:01:42;;;;;;;3.42;1.27;;;23.90;71.20;;;;;;5115105;28;20020;-71
2023/05/06 11:04:10;;;;;;;3.65;1.20;;;24.50;69.10;;;;;;5115726;28;20031;-72
2023/05/06 11:06:41;;;;;;;3.58;1.20;;;24.90;68.80;;;;;;5116570;28;20019;-73
2023/05/06 11:09:15;;;;;;;3.65;0.90;;;25.40;68.90;;;;;;5109884;28;20122;-73
2023/05/06 11:11:57;;;;;;;3.85;0.90;;;25.30;66.10;;;;;;5108231;28;20371;-72
2023/05/06 11:14:28;;;;;;;2.92;1.10;;;25.60;67.20;;;;;;5109429;28;20024;-72
2023/05/06 11:16:58;;;;;;;3.42;1.20;;;25.00;67.20;;;;;;5111157;28;20024;-72
2023/05/06 11:19:31;;;;;;;3.80;1.10;;;24.70;66.60;;;;;;5112593;28;20092;-72
2023/05/06 11:21:59;;;;;;;5.22;1.40;;;23.80;68.50;;;;;;5098292;28;20058;-72
2023/05/06 11:24:31;;;;;;;2.53;1.08;;;23.30;69.50;;;;;;5112160;28;20064;-72
2023/05/06 11:26:58;;;;;;;5.18;1.60;;;23.10;70.30;;;;;;5116107;28;20026;-74
2023/05/06 11:29:25;;;;;;;2.97;1.23;;;22.90;71.70;;;;;;5111506;28;20034;-72
2023/05/06 11:31:52;;;;;;;5.28;1.10;;;23.10;70.60;;;;;;5116010;28;20361;-72
2023/05/06 11:34:29;;;;;;;5.80;1.10;;;23.60;69.70;;;;;;5114055;28;20031;-73
2023/05/06 11:37:04;;;;;;;6.35;1.27;;;23.80;68.20;;;;;;5095785;28;20066;-72
2023/05/06 11:39:35;;;;;;;5.95;1.50;;;23.50;67.90;;;;;;5111582;28;20094;-72
2023/05/06 11:42:03;;;;;;;3.65;1.20;;;23.40;69.60;;;;;;5115692;28;20050;-73
2023/05/06 11:44:37;;;;;;;3.42;1.13;;;23.30;69.40;;;;;;5110714;28;20016;-72
2023/05/06 11:47:05;;;;;;;4.53;1.38;;;22.90;68.80;;;;;;5115956;28;20418;-72
2023/05/06 11:49:40;;;;;;;3.97;1.45;;;22.90;70.10;;;;;;5113902;28;20020;-72
2023/05/06 11:52:11;;;;;;;3.58;1.35;;;22.70;70.50;;;;;;5096982;28;20027;-72
2023/05/06 11:54:41;;;;;;;6.20;1.42;;;22.20;69.20;;;;;;5094771;28;20026;-73
2023/05/06 11:57:08;;;;;;;3.67;1.13;;;22.50;70.30;;;;;;5114806;28;20149;-72
2023/05/06 11:59:36;;;;;;;2.38;1.10;;;23.30;69.90;;;;;;5112197;28;20054;-72
2023/05/06 12:02:11;;;;;;;4.15;1.33;;;24.10;68.30;;;;;;5115920;28;20027;-72
2023/05/06 12:04:38;;;;;;;2.92;1.02;;;24.00;67.60;;;;;;5112798;28;20020;-72
2023/05/06 12:07:04;;;;;;;5.00;1.20;;;24.20;65.90;;;;;;5115788;28;20012;-72
2023/05/06 12:09:31;;;;;;;5.32;1.05;;;23.50;67.00;;;;;;5112404;28;20052;-72
2023/05/06 12:11:57;;;;;;;4.28;1.17;;;23.50;66.60;;;;;;5114062;28;20120;-72
2023/05/06 12:14:23;;;;;;;2.72;1.10;;;23.70;67.60;;;;;;5098440;28;20419;-72
2023/05/06 12:16:49;;;;;;;3.25;0.98;;;23.70;66.30;;;;;;5118152;28;20085;-72
2023/05/06 12:19:16;;;;;;;2.38;1.00;;;23.70;66.40;;;;;;5112856;28;20042;-73
2023/05/06 12:21:42;;;;;;;2.25;1.00;;;23.60;65.80;;;;;;5112433;28;20031;-73
2023/05/06 12:24:08;;;;;;;3.95;1.20;;;23.00;66.80;;;;;;5113841;28;20062;-72
2023/05/06 12:26:47;;;;;;;2.72;1.10;;;23.00;67.20;;;;;;5116641;28;20036;-72
2023/05/06 12:29:16;;;;;;;3.75;1.17;;;23.60;67.70;;;;;;5118134;28;20031;-72
2023/05/06 12:31:46;;;;;;;4.30;0.80;;;24.80;66.30;;;;;;5110505;28;20351;-72
2023/05/06 12:34:13;;;;;;;2.50;1.00;;;25.10;63.50;;;;;;5117191;28;20111;-72
2023/05/06 12:36:43;;;;;;;3.63;1.00;;;24.70;62.90;;;;;;5095861;28;20027;-72
2023/05/06 12:39:10;;;;;;;4.40;1.13;;;24.20;64.60;;;;;;5116991;28;20103;-72
2023/05/06 12:41:39;;;;;;;3.15;1.00;;;24.60;63.40;;;;;;5112713;28;20020;-72